.
WxDataArchive / Data Records for 2007-08-21
2007-08-20 August 2007 2007-08-22

Data Records for Tuesday, 21 August 2007

Time	Temp	Chill	HIndex	Humid	Dewpt	 Wind 	HiWind	WindDir	Rain 	Barom 
-----	----	-----	------	-----	-----	------	------	-------	-----	----- 
00:00	66.6	66.6	66.6	99	66.3	0	2	68	0.01	29.841 
00:05	66.6	66.6	66.6	99	66.3	0	3	112	0.00	29.839 
00:10	66.6	66.6	66.6	99	66.3	1	3	112	0.00	29.839 
00:15	66.6	66.6	66.6	99	66.3	0	2	90	0.01	29.839 
00:20	66.6	66.6	66.6	99	66.3	1	3	90	0.00	29.837 
00:25	66.6	66.6	66.6	99	66.3	1	3	90	0.00	29.837 
00:30	66.6	66.6	66.6	99	66.3	1	3	112	0.01	29.839 
00:35	66.8	66.8	66.8	99	66.5	0	1	112	0.02	29.842 
00:40	66.6	66.6	66.6	99	66.3	1	3	112	0.06	29.840 
00:45	66.6	66.6	66.6	99	66.3	1	4	112	0.02	29.839 
00:50	66.6	66.6	66.6	99	66.3	1	3	68	0.00	29.841 
00:55	66.6	66.6	66.6	99	66.3	0	2	68	0.00	29.839 
01:00	66.6	66.6	66.6	99	66.3	1	3	68	0.01	29.839 
01:05	66.6	66.6	66.6	99	66.3	1	4	90	0.00	29.834 
01:10	66.6	66.6	66.6	99	66.3	1	2	90	0.00	29.831 
01:15	66.6	66.6	66.6	99	66.3	0	2	90	0.01	29.832 
01:20	66.4	66.4	66.4	99	66.1	1	3	90	0.06	29.832 
01:25	66.4	66.4	66.4	99	66.1	1	3	90	0.04	29.833 
01:30	66.3	66.3	66.3	99	66.0	0	3	90	0.01	29.836 
01:35	66.3	66.3	66.3	99	66.0	1	3	112	0.00	29.831 
01:40	66.1	66.1	66.1	99	65.8	1	4	45	0.00	29.825 
01:45	66.1	66.1	66.1	99	65.8	1	5	90	0.00	29.821 
01:50	66.1	66.1	66.1	99	65.8	1	5	112	0.01	29.821 
01:55	66.0	66.0	66.0	99	65.7	2	5	112	0.00	29.819 
02:00	66.0	66.0	66.0	99	65.7	1	3	112	0.00	29.823 
02:05	66.0	66.0	66.0	99	65.7	1	4	135	0.00	29.832 
02:10	66.0	66.0	66.0	99	65.7	1	3	135	0.00	29.835 
02:15	66.0	66.0	66.0	99	65.7	1	3	135	0.01	29.836 
02:20	66.0	66.0	66.0	99	65.7	1	2	112	0.00	29.836 
02:25	66.0	66.0	66.0	99	65.7	1	3	22	0.00	29.835 
02:30	66.0	66.0	66.0	99	65.7	2	6	90	0.00	29.829 
02:35	66.0	66.0	66.0	99	65.7	2	6	112	0.00	29.831 
02:40	66.0	66.0	66.0	99	65.7	1	6	158	0.00	29.833 
02:45	66.0	66.0	66.0	99	65.7	2	5	112	0.00	29.829 
02:50	66.0	66.0	66.0	99	65.7	1	3	112	0.00	29.834 
02:55	66.0	66.0	66.0	99	65.7	1	3	112	0.00	29.836 
03:00	66.0	66.0	66.0	99	65.7	1	3	112	0.00	29.836 
03:05	65.8	65.8	65.8	99	65.5	1	3	112	0.00	29.835 
03:10	65.8	65.8	65.8	99	65.5	1	3	112	0.00	29.837 
03:15	65.8	65.8	65.8	99	65.5	1	3	112	0.00	29.838 
03:20	65.8	65.8	65.8	99	65.5	1	3	112	0.00	29.838 
03:25	65.6	65.6	65.6	99	65.3	1	3	90	0.00	29.847 
03:30	65.6	65.6	65.6	99	65.3	0	2	135	0.00	29.849 
03:35	65.6	65.6	65.6	99	65.3	0	3	135	0.00	29.851 
03:40	65.6	65.6	65.6	99	65.3	0	2	90	0.00	29.851 
03:45	65.6	65.6	65.6	99	65.3	1	3	90	0.00	29.852 
03:50	65.5	65.5	65.5	99	65.2	1	3	112	0.01	29.851 
03:55	65.5	65.5	65.5	99	65.2	0	1	112	0.00	29.852 
04:00	65.5	65.5	65.5	99	65.2	1	2	68	0.00	29.853 
04:05	65.3	65.3	65.3	99	65.0	1	3	68	0.00	29.853 
04:10	65.3	65.3	65.3	99	65.0	1	2	90	0.00	29.857 
04:15	65.3	65.3	65.3	99	65.0	1	2	90	0.00	29.856 
04:20	65.2	65.2	65.2	99	64.9	1	5	90	0.00	29.857 
04:25	65.2	65.2	65.2	99	64.9	1	3	112	0.00	29.856 
04:30	65.3	65.3	65.3	99	65.0	0	3	112	0.00	29.854 
04:35	65.2	65.2	65.2	99	64.9	1	4	112	0.00	29.853 
04:40	65.2	65.2	65.2	99	64.9	1	4	112	0.00	29.850 
04:45	65.2	65.2	65.2	99	64.9	1	4	112	0.00	29.852 
04:50	65.2	65.2	65.2	99	64.9	0	2	112	0.00	29.854 
04:55	65.0	65.0	65.0	99	64.7	1	3	68	0.00	29.856 
05:00	65.0	65.0	65.0	99	64.7	1	3	90	0.00	29.854 
05:05	65.0	65.0	65.0	99	64.7	1	3	68	0.00	29.852 
05:10	64.8	64.8	64.8	99	64.5	1	3	68	0.00	29.854 
05:15	64.8	64.8	64.8	99	64.5	1	4	112	0.00	29.856 
05:20	64.8	64.8	64.8	99	64.5	1	3	135	0.00	29.855 
05:25	64.8	64.8	64.8	99	64.5	1	5	112	0.00	29.854 
05:30	64.7	64.7	64.7	99	64.4	1	4	112	0.00	29.855 
05:35	64.7	64.7	64.7	99	64.4	1	3	112	0.00	29.856 
05:40	64.7	64.7	64.7	99	64.4	0	3	112	0.00	29.865 
05:45	64.7	64.7	64.7	99	64.4	1	2	112	0.00	29.863 
05:50	64.7	64.7	64.7	99	64.4	1	2	90	0.00	29.865 
05:55	64.7	64.7	64.7	99	64.4	1	2	90	0.00	29.866 
06:00	64.7	64.7	64.7	99	64.4	1	4	90	0.00	29.864 
06:05	64.7	64.7	64.7	99	64.4	1	2	90	0.00	29.870 
06:10	64.5	64.5	64.5	99	64.2	1	3	90	0.00	29.871 
06:15	64.5	64.5	64.5	99	64.2	0	2	90	0.00	29.870 
06:20	64.5	64.5	64.5	99	64.2	1	3	90	0.00	29.870 
06:25	64.5	64.5	64.5	99	64.2	0	2	90	0.00	29.873 
06:30	64.5	64.5	64.5	99	64.2	1	3	90	0.00	29.876 
06:35	64.5	64.5	64.5	99	64.2	0	2	90	0.00	29.875 
06:40	64.3	64.3	64.3	99	64.0	1	3	90	0.00	29.873 
06:45	64.2	64.2	64.2	99	63.9	1	5	90	0.00	29.875 
06:50	64.2	64.2	64.2	99	63.9	1	4	90	0.00	29.871 
06:55	64.2	64.2	64.2	99	63.9	1	3	112	0.00	29.872 
07:00	64.2	64.2	64.2	99	63.9	1	3	68	0.00	29.875 
07:05	64.2	64.2	64.2	99	63.9	1	2	68	0.00	29.876 
07:10	64.2	64.2	64.2	99	63.9	0	1	68	0.00	29.883 
07:15	64.3	64.3	64.3	99	64.0	0	2	68	0.00	29.885 
07:20	64.3	64.3	64.3	99	64.0	1	3	68	0.00	29.886 
07:25	64.3	64.3	64.3	99	64.0	1	4	112	0.00	29.889 
07:30	64.3	64.3	64.3	99	64.0	0	2	112	0.00	29.898 
07:35	64.5	64.5	64.5	99	64.2	0	2	112	0.00	29.902 
07:40	64.5	64.5	64.5	99	64.2	0	1	112	0.00	29.905 
07:45	64.5	64.5	64.5	99	64.2	0	2	112	0.00	29.906 
07:50	64.7	64.7	64.7	99	64.4	0	2	112	0.00	29.906 
07:55	64.7	64.7	64.7	99	64.4	0	1	112	0.00	29.908 
08:00	64.7	64.7	64.7	99	64.4	0	1	112	0.00	29.904 
08:05	64.8	64.8	64.8	99	64.5	0	1	112	0.00	29.908 
08:10	64.8	64.8	64.8	99	64.5	0	2	112	0.00	29.904 
08:15	64.8	64.8	64.8	99	64.5	1	4	112	0.00	29.903 
08:20	65.0	65.0	65.0	99	64.7	0	2	112	0.00	29.903 
08:25	65.0	65.0	65.0	99	64.7	0	1	112	0.00	29.903 
08:30	65.0	65.0	65.0	99	64.7	1	3	112	0.00	29.902 
08:35	65.2	65.2	65.2	99	64.9	1	2	112	0.00	29.905 
08:40	65.2	65.2	65.2	99	64.9	1	3	112	0.00	29.906 
08:45	65.3	65.3	65.3	99	65.0	0	0	---	0.00	29.916 
08:50	65.5	65.5	65.5	99	65.2	0	2	112	0.00	29.915 
08:55	65.3	65.3	65.3	99	65.0	1	2	112	0.00	29.916 
09:00	65.3	65.3	65.3	99	65.0	0	1	112	0.00	29.916 
09:05	65.6	65.6	65.6	99	65.3	0	2	112	0.00	29.914 
09:10	65.6	65.6	65.6	99	65.3	1	3	112	0.00	29.912 
09:15	65.8	65.8	65.8	99	65.5	1	3	112	0.00	29.915 
09:20	65.8	65.8	65.8	99	65.5	1	2	112	0.00	29.916 
09:25	66.0	66.0	66.0	99	65.7	1	2	112	0.00	29.916 
09:30	66.1	66.1	66.1	99	65.8	1	2	112	0.00	29.916 
09:35	66.0	66.0	66.0	99	65.7	1	3	90	0.00	29.916 
09:40	66.1	66.1	66.1	99	65.8	1	3	112	0.00	29.914 
09:45	66.0	66.0	66.0	99	65.7	1	4	112	0.00	29.914 
09:50	66.0	66.0	66.0	99	65.7	1	3	90	0.00	29.914 
09:55	66.0	66.0	66.0	99	65.7	1	4	90	0.00	29.914 
10:00	66.0	66.0	66.0	99	65.7	1	2	90	0.00	29.917 
10:05	66.0	66.0	66.0	99	65.7	0	2	90	0.00	29.923 
10:10	65.8	65.8	65.8	99	65.5	1	3	90	0.00	29.921 
10:15	65.8	65.8	65.8	99	65.5	1	2	90	0.00	29.924 
10:20	66.0	66.0	66.0	99	65.7	0	2	90	0.00	29.924 
10:25	66.0	66.0	66.0	99	65.7	1	3	90	0.00	29.921 
10:30	66.0	66.0	66.0	99	65.7	1	4	90	0.00	29.923 
10:35	66.0	66.0	66.0	99	65.7	1	3	90	0.00	29.924 
10:40	66.0	66.0	66.0	99	65.7	1	3	90	0.00	29.922 
10:45	66.0	66.0	66.0	99	65.7	0	3	90	0.00	29.921 
10:50	66.1	66.1	66.1	99	65.8	1	3	90	0.00	29.921 
10:55	66.3	66.3	66.3	99	66.0	1	3	90	0.00	29.924 
11:00	66.3	66.3	66.3	98	65.7	1	3	90	0.00	29.921 
11:05	66.4	66.4	66.4	98	65.8	1	2	90	0.00	29.921 
11:10	66.4	66.4	66.4	98	65.8	1	4	90	0.00	29.923 
11:15	66.4	66.4	66.4	98	65.8	1	3	90	0.00	29.921 
11:20	66.6	66.6	66.6	98	66.0	1	4	90	0.00	29.921 
11:25	66.6	66.6	66.6	98	66.0	1	3	90	0.00	29.919 
11:30	66.8	66.8	66.8	98	66.2	1	3	112	0.00	29.916 
11:35	66.9	66.9	66.9	98	66.3	1	4	112	0.00	29.915 
11:40	67.1	67.1	67.1	98	66.5	1	3	90	0.00	29.918 
11:45	67.1	67.1	67.1	97	66.2	1	3	90	0.00	29.917 
11:50	67.4	67.4	67.4	97	66.5	1	3	90	0.00	29.915 
11:55	67.6	67.6	67.6	97	66.7	1	3	90	0.00	29.914 
12:00	67.8	67.8	67.8	97	66.9	1	4	112	0.00	29.916 
12:05	67.9	67.9	67.9	96	66.7	1	3	112	0.00	29.914 
12:10	68.1	68.1	68.1	96	66.9	1	5	112	0.00	29.913 
12:15	68.1	68.1	68.1	96	66.9	1	3	90	0.00	29.917 
12:20	68.3	68.3	68.3	96	67.1	1	3	90	0.00	29.918 
12:25	68.4	68.4	68.4	95	66.9	0	1	90	0.00	29.926 
12:30	68.6	68.6	68.6	95	67.1	0	2	90	0.00	29.923 
12:35	68.6	68.6	68.6	95	67.1	0	2	90	0.00	29.923 
12:40	68.8	68.8	68.8	95	67.3	0	1	90	0.00	29.926 
12:45	68.9	68.9	68.9	95	67.4	0	2	90	0.00	29.929 
12:50	68.9	68.9	68.9	94	67.1	1	3	90	0.00	29.932 
12:55	69.3	69.3	69.3	94	67.5	0	2	90	0.00	29.929 
13:00	69.6	69.6	69.6	94	67.8	0	3	90	0.00	29.926 
13:05	69.8	69.8	69.8	94	68.0	0	2	90	0.00	29.928 
13:10	69.9	69.9	69.9	93	67.8	0	3	90	0.00	29.929 
13:15	69.9	69.9	69.9	93	67.8	1	4	90	0.00	29.923 
13:20	70.1	70.1	70.1	93	68.0	1	2	90	0.00	29.921 
13:25	70.4	70.4	70.4	93	68.3	1	4	112	0.00	29.923 
13:30	70.4	70.4	70.4	92	68.0	1	3	112	0.00	29.928 
13:35	70.8	70.8	70.8	92	68.4	0	1	158	0.00	29.931 
13:40	71.1	71.1	71.1	91	68.3	0	3	158	0.00	29.931 
13:45	71.3	71.3	71.3	91	68.5	1	3	158	0.00	29.931 
13:50	71.3	71.3	71.3	90	68.2	1	3	112	0.00	29.931 
13:55	71.8	71.8	71.8	91	69.0	0	3	112	0.00	29.928 
14:00	72.3	72.3	72.3	90	69.2	1	3	112	0.00	29.927 
14:05	72.7	72.7	72.7	89	69.3	1	3	112	0.00	29.929 
14:10	73.0	73.0	73.0	87	68.9	1	2	112	0.00	29.928 
14:15	73.3	73.3	73.3	87	69.2	0	3	112	0.00	29.927 
14:20	73.5	73.5	73.5	88	69.7	1	4	112	0.00	29.925 
14:25	73.9	73.9	73.9	87	69.8	1	3	112	0.00	29.921 
14:30	74.4	74.4	74.4	87	70.3	0	3	135	0.00	29.920 
14:35	74.4	74.4	74.4	86	69.9	1	4	135	0.00	29.920 
14:40	74.7	74.7	74.7	85	69.9	1	2	158	0.00	29.914 
14:45	75.3	75.3	75.2	86	70.8	1	3	158	0.00	29.914 
14:50	75.6	75.6	76.0	84	70.4	0	1	248	0.00	29.911 
14:55	75.8	75.8	76.5	82	69.9	0	1	248	0.00	29.910 
15:00	76.0	76.0	76.8	82	70.1	0	0	---	0.00	29.907 
15:05	76.1	76.1	76.9	83	70.5	0	0	---	0.00	29.906 
15:10	76.3	76.3	77.2	83	70.7	0	0	---	0.00	29.909 
15:15	76.5	76.5	77.6	83	70.9	0	0	---	0.00	29.909 
15:20	76.5	76.5	77.7	82	70.6	0	0	---	0.00	29.910 
15:25	76.5	76.5	77.7	82	70.6	0	0	---	0.00	29.911 
15:30	76.3	76.3	77.3	82	70.4	0	0	---	0.00	29.908 
15:35	76.3	76.3	77.2	83	70.7	0	0	---	0.00	29.907 
15:40	76.3	76.3	77.2	83	70.7	0	0	---	0.00	29.900 
15:45	76.1	76.1	76.8	84	70.9	0	0	---	0.00	29.900 
15:50	76.0	76.0	76.6	85	71.2	0	0	---	0.00	29.898 
15:55	76.0	76.0	76.6	85	71.2	0	0	---	0.00	29.905 
16:00	75.8	75.8	76.2	85	71.0	0	0	---	0.00	29.909 
16:05	75.8	75.8	76.2	85	71.0	0	0	---	0.00	29.908 
16:10	75.6	75.6	75.8	86	71.1	0	0	---	0.00	29.910 
16:15	75.3	75.3	75.2	86	70.8	0	0	---	0.00	29.912 
16:20	75.3	75.3	75.2	86	70.8	0	0	---	0.00	29.908 
16:25	75.3	75.3	75.1	87	71.2	0	0	---	0.00	29.912 
16:30	75.1	75.1	74.6	88	71.3	0	0	---	0.05	29.917 
16:35	74.7	74.7	74.7	90	71.6	0	0	---	0.01	29.916 
16:40	74.7	74.7	74.7	91	71.9	0	2	202	0.00	29.916 
16:45	74.7	74.7	74.7	90	71.6	1	2	202	0.00	29.915 
16:50	75.4	75.4	74.5	92	72.9	0	2	202	0.00	29.913 
16:55	75.4	75.4	74.7	91	72.6	0	2	158	0.00	29.911 
17:00	75.4	75.4	74.8	90	72.3	1	3	90	0.00	29.911 
17:05	75.4	75.4	75.0	89	71.9	1	3	90	0.00	29.912 
17:10	75.6	75.6	75.4	89	72.1	1	2	90	0.00	29.912 
17:15	75.4	75.4	75.0	89	71.9	0	2	90	0.00	29.914 
17:20	75.4	75.4	75.1	88	71.6	1	3	90	0.00	29.914 
17:25	75.3	75.3	75.0	88	71.5	1	3	90	0.00	29.918 
17:30	75.3	75.3	74.7	90	72.2	1	3	90	0.00	29.923 
17:35	75.1	75.1	74.3	90	72.0	1	3	90	0.00	29.925 
17:40	75.1	75.1	74.3	90	72.0	1	4	90	0.00	29.924 
17:45	74.9	74.9	74.9	90	71.8	2	3	68	0.00	29.923 
17:50	74.9	74.9	74.9	91	72.1	0	2	90	0.00	29.924 
17:55	74.7	74.7	74.7	90	71.6	1	4	90	0.00	29.926 
18:00	74.7	74.7	74.7	91	71.9	1	2	90	0.00	29.926 
18:05	74.7	74.7	74.7	90	71.6	1	3	112	0.00	29.927 
18:10	74.6	74.6	74.6	90	71.5	1	3	90	0.00	29.927 
18:15	74.6	74.6	74.6	91	71.8	1	3	90	0.00	29.927 
18:20	74.4	74.4	74.4	90	71.3	1	3	90	0.00	29.928 
18:25	74.2	74.2	74.2	91	71.4	1	2	90	0.00	29.925 
18:30	74.0	74.0	74.0	91	71.2	1	3	90	0.00	29.928 
18:35	74.0	74.0	74.0	91	71.2	1	3	90	0.00	29.930 
18:40	74.0	74.0	74.0	92	71.5	1	2	90	0.00	29.931 
18:45	73.9	73.9	73.9	91	71.1	1	3	90	0.00	29.932 
18:50	73.9	73.9	73.9	92	71.4	1	3	90	0.00	29.931 
18:55	73.7	73.7	73.7	92	71.2	1	4	90	0.00	29.930 
19:00	73.7	73.7	73.7	92	71.2	1	4	90	0.00	29.932 
19:05	73.5	73.5	73.5	92	71.0	1	3	90	0.00	29.932 
19:10	73.3	73.3	73.3	92	70.8	1	2	90	0.00	29.933 
19:15	73.2	73.2	73.2	92	70.7	1	3	90	0.00	29.933 
19:20	73.0	73.0	73.0	93	70.8	1	3	90	0.00	29.932 
19:25	73.0	73.0	73.0	93	70.8	1	2	90	0.00	29.931 
19:30	72.8	72.8	72.8	93	70.7	1	2	90	0.00	29.931 
19:35	72.8	72.8	72.8	93	70.7	0	2	90	0.00	29.930 
19:40	72.7	72.7	72.7	94	70.9	1	2	90	0.00	29.931 
19:45	72.5	72.5	72.5	94	70.7	0	2	90	0.00	29.930 
19:50	72.5	72.5	72.5	94	70.7	1	3	90	0.00	29.930 
19:55	72.3	72.3	72.3	94	70.5	0	1	90	0.00	29.935 
20:00	72.3	72.3	72.3	94	70.5	0	1	90	0.00	29.939 
20:05	72.1	72.1	72.1	94	70.3	0	2	90	0.00	29.942 
20:10	72.0	72.0	72.0	94	70.2	0	1	90	0.00	29.945 
20:15	71.8	71.8	71.8	95	70.3	0	1	90	0.00	29.945 
20:20	71.8	71.8	71.8	95	70.3	0	2	90	0.00	29.946 
20:25	71.8	71.8	71.8	95	70.3	0	1	90	0.00	29.946 
20:30	71.8	71.8	71.8	95	70.3	0	2	90	0.00	29.947 
20:35	71.6	71.6	71.6	95	70.1	0	2	90	0.00	29.948 
20:40	71.6	71.6	71.6	95	70.1	1	3	90	0.00	29.950 
20:45	71.5	71.5	71.5	95	70.0	0	1	90	0.00	29.951 
20:50	71.5	71.5	71.5	96	70.3	0	2	90	0.00	29.955 
20:55	71.5	71.5	71.5	96	70.3	1	2	90	0.00	29.957 
21:00	71.3	71.3	71.3	96	70.1	0	1	90	0.00	29.960 
21:05	71.3	71.3	71.3	96	70.1	0	2	90	0.00	29.960 
21:10	71.1	71.1	71.1	96	69.9	0	2	90	0.00	29.960 
21:15	70.9	70.9	70.9	96	69.7	0	1	90	0.00	29.961 
21:20	70.9	70.9	70.9	96	69.7	0	2	90	0.00	29.961 
21:25	70.9	70.9	70.9	96	69.7	0	2	90	0.00	29.961 
21:30	70.9	70.9	70.9	96	69.7	0	1	90	0.00	29.961 
21:35	70.8	70.8	70.8	96	69.6	0	2	90	0.00	29.961 
21:40	70.8	70.8	70.8	96	69.6	0	1	90	0.00	29.960 
21:45	70.8	70.8	70.8	96	69.6	0	2	90	0.00	29.958 
21:50	70.8	70.8	70.8	96	69.6	0	2	90	0.00	29.958 
21:55	70.8	70.8	70.8	96	69.6	0	2	90	0.00	29.956 
22:00	70.9	70.9	70.9	96	69.7	0	2	90	0.00	29.954 
22:05	70.9	70.9	70.9	96	69.7	0	2	90	0.00	29.952 
22:10	70.9	70.9	70.9	97	70.0	1	2	90	0.00	29.955 
22:15	71.1	71.1	71.1	97	70.2	0	2	90	0.00	29.954 
22:20	71.1	71.1	71.1	97	70.2	0	1	90	0.00	29.951 
22:25	71.1	71.1	71.1	97	70.2	1	4	90	0.00	29.948 
22:30	71.3	71.3	71.3	97	70.4	1	3	90	0.00	29.947 
22:35	71.3	71.3	71.3	97	70.4	0	2	90	0.00	29.946 
22:40	71.3	71.3	71.3	97	70.4	1	2	90	0.00	29.945 
22:45	71.5	71.5	71.5	96	70.3	0	1	90	0.00	29.945 
22:50	71.5	71.5	71.5	96	70.3	0	1	90	0.00	29.942 
22:55	71.5	71.5	71.5	96	70.3	1	3	90	0.00	29.940 
23:00	71.5	71.5	71.5	96	70.3	1	3	90	0.00	29.937 
23:05	71.5	71.5	71.5	96	70.3	1	4	68	0.00	29.933 
23:10	71.5	71.5	71.5	96	70.3	1	3	68	0.00	29.933 
23:15	71.6	71.6	71.6	96	70.4	0	2	68	0.00	29.931 
23:20	71.5	71.5	71.5	96	70.3	1	3	68	0.00	29.929 
23:25	71.5	71.5	71.5	96	70.3	1	2	68	0.00	29.928 
23:30	71.3	71.3	71.3	96	70.1	1	2	68	0.00	29.928 
23:35	71.3	71.3	71.3	96	70.1	0	2	68	0.00	29.929 
23:40	71.1	71.1	71.1	96	69.9	1	3	68	0.00	29.929 
23:45	71.1	71.1	71.1	96	69.9	1	3	68	0.00	29.929 
23:50	70.9	70.9	70.9	96	69.7	1	2	68	0.00	29.930 
23:55	70.9	70.9	70.9	96	69.7	0	2	68	0.00	29.933 

CoCoRaHS
IN-AL-39
A2 Web Hosting
Creative Commons License
GoDaddy
Look for:

loaded 2017-10-17 18:15:11 • last modified 2010-11-18 10:43:29
Privacy PolicyDisclaimer
• wx.awcolley.com is powered by PmWiki v.2002016 •
• all content (unless otherwise noted) © 2017 A W Colley